Peary Spirit — C6YM3 — position and weather

sailwx.info

Track history (hours):
 
Tides and Currents Weather Stations Pressure Air Temp Water Temp Dewpoint Dewpoint Depression Visibility Wind Speed Wind Dir Waves Ship Positions

Peary Spirit

Last reported at 2015-Jan-31 15:33 UTC. Time now 2015-Jan-31 16:13 UTC.
Position N 53°44' E 000°32'.

Length 249 m; draft 14.2 m.

Type: Ship (hazmat cat A). MMSI: 311027600.

Date/timePositionNaut miles runAvg speedWind from/ knotsBaromVisibWave heightAir tempDewpointWater temp
2015-Jan-31 15:33N 53°44' E 000°32'5 5.4
2015-Jan-31 14:33N 53°40' E 000°25'0 0.2
2015-Jan-31 13:33N 53°41' E 000°26'0 0.4
2015-Jan-31 12:33N 53°41' E 000°26'5 4.5
2015-Jan-31 11:33N 53°44' E 000°32'4 3.0
2015-Jan-31 10:21N 53°47' E 000°31'0 0.2
2015-Jan-31 09:21N 53°47' E 000°31'0 0.0
2015-Jan-31 08:27N 53°47' E 000°31'0 0.1
2015-Jan-31 07:27N 53°47' E 000°31'0 0.2
2015-Jan-31 06:30N 53°47' E 000°31'0 0.1
2015-Jan-31 05:30N 53°47' E 000°31'0 0.0
2015-Jan-31 04:30N 53°47' E 000°31'0 0.0
2015-Jan-31 03:33N 53°47' E 000°31'0 0.0
2015-Jan-31 02:33N 53°47' E 000°31'0 0.0
2015-Jan-31 01:33N 53°47' E 000°31'0 0.0
2015-Jan-31 00:30N 53°47' E 000°31'0 0.0
2015-Jan-30 23:18N 53°47' E 000°31'0 0.0
2015-Jan-30 22:33N 53°47' E 000°31'0 0.0
2015-Jan-30 21:24N 53°47' E 000°31'0 0.1
2015-Jan-30 20:33N 53°47' E 000°31'0 0.0
2015-Jan-30 19:33N 53°47' E 000°31'0 0.0
2015-Jan-30 18:24N 53°47' E 000°31'0 0.1
2015-Jan-30 17:33N 53°47' E 000°31'3 3.1
2015-Jan-30 16:33N 53°48' E 000°26'2 1.9
2015-Jan-30 15:33N 53°49' E 000°23'4 4.2
2015-Jan-30 14:33N 53°53' E 000°21'4 3.8
2015-Jan-30 13:31N 53°57' E 000°23'0 0.1
2015-Jan-30 12:31N 53°57' E 000°23'0 0.0
2015-Jan-30 11:31N 53°57' E 000°23'0 0.0
2015-Jan-30 10:28N 53°57' E 000°23'0 0.0
2015-Jan-30 09:31N 53°57' E 000°23'0 0.1
2015-Jan-30 08:31N 53°57' E 000°23'0 0.1
2015-Jan-30 07:31N 53°57' E 000°23'0 0.0
2015-Jan-30 06:31N 53°57' E 000°23'0 0.1
2015-Jan-30 05:28N 53°57' E 000°23'0 0.1
2015-Jan-30 04:25N 53°57' E 000°23'0 0.1
2015-Jan-30 03:25N 53°57' E 000°23'0 0.0
2015-Jan-30 02:33N 53°57' E 000°23'0 0.0
2015-Jan-30 01:31N 53°57' E 000°23'0 0.0
2015-Jan-30 00:31N 53°57' E 000°23'0 0.0
2015-Jan-29 23:31N 53°57' E 000°23'0 0.0
2015-Jan-29 22:34N 53°57' E 000°23'0 0.0
2015-Jan-29 21:34N 53°57' E 000°23'0 0.0
2015-Jan-29 20:30N 53°57' E 000°23'0 0.0
2015-Jan-29 19:31N 53°57' E 000°23'0 0.1
2015-Jan-29 18:34N 53°57' E 000°23'0 0.0
2015-Jan-29 17:30N 53°57' E 000°23'0 0.0
2015-Jan-29 16:18N 53°57' E 000°23'0 0.0
2015-Jan-29 15:28N 53°57' E 000°23'0 0.0
2015-Jan-29 14:31N 53°57' E 000°23'0 0.0
2015-Jan-29 13:24N 53°57' E 000°23'0 0.0
2015-Jan-29 12:33N 53°57' E 000°23'0 0.0
2015-Jan-29 11:34N 53°57' E 000°23'0 0.0
2015-Jan-29 10:28N 53°57' E 000°23'0 0.0
2015-Jan-29 09:33N 53°57' E 000°23'0 0.0
2015-Jan-29 08:33N 53°57' E 000°23'0 0.0
2015-Jan-29 07:28N 53°57' E 000°23'0 0.0
2015-Jan-29 06:30N 53°57' E 000°23'0 0.0
2015-Jan-29 05:33N 53°57' E 000°23'0 0.0
2015-Jan-29 04:33N 53°57' E 000°23'0 0.0
2015-Jan-29 03:33N 53°57' E 000°23'0 0.0
2015-Jan-29 02:34N 53°57' E 000°23'0 0.0
2015-Jan-29 01:34N 53°57' E 000°23'0 0.1
2015-Jan-29 00:33N 53°57' E 000°23'0 0.0
2015-Jan-28 23:34N 53°57' E 000°23'0 0.0
2015-Jan-28 22:34N 53°57' E 000°23'0 0.0
2015-Jan-28 21:33N 53°57' E 000°23'0 0.0
2015-Jan-28 20:33N 53°57' E 000°23'0 0.0
2015-Jan-28 19:33N 53°57' E 000°23'0 0.0
2015-Jan-28 18:33N 53°57' E 000°23'0 0.0
2015-Jan-28 17:24N 53°57' E 000°23'0 0.0
2015-Jan-28 16:27N 53°57' E 000°23'0 0.0
2015-Jan-28 15:33N 53°57' E 000°23'0 0.0
2015-Jan-28 14:33N 53°57' E 000°23'0 0.0
2015-Jan-28 13:30N 53°57' E 000°23'0 0.0
2015-Jan-28 12:33N 53°57' E 000°23'0 0.0
2015-Jan-28 11:33N 53°57' E 000°23'0 0.0
2015-Jan-28 10:33N 53°57' E 000°23'0 0.2
2015-Jan-28 09:33N 53°57' E 000°23'0 0.1
2015-Jan-28 08:33N 53°57' E 000°23'0 0.1
2015-Jan-28 07:24N 53°57' E 000°23'0 0.1
2015-Jan-28 06:24N 53°57' E 000°22'0 0.0
2015-Jan-28 05:33N 53°57' E 000°22'0 0.0
2015-Jan-28 04:24N 53°57' E 000°22'0 0.0
2015-Jan-28 03:27N 53°57' E 000°22'0 0.0
2015-Jan-28 02:30N 53°57' E 000°23'0 0.0
2015-Jan-28 01:24N 53°57' E 000°23'0 0.1
2015-Jan-28 00:33N 53°57' E 000°23'0 0.1
2015-Jan-27 23:33N 53°57' E 000°23'0 0.1
2015-Jan-27 22:33N 53°57' E 000°23'0 0.0
2015-Jan-27 21:33N 53°57' E 000°23'0 0.0
2015-Jan-27 20:33N 53°57' E 000°23'0 0.0
2015-Jan-27 19:33N 53°57' E 000°23'0 0.0
2015-Jan-27 18:33N 53°57' E 000°23'0 0.2
2015-Jan-27 17:24N 53°57' E 000°22'0 0.0
2015-Jan-27 16:24N 53°57' E 000°22'0 0.0
2015-Jan-27 15:24N 53°57' E 000°22'0 0.1
2015-Jan-27 14:33N 53°57' E 000°23'0 0.2
2015-Jan-27 13:27N 53°57' E 000°23'0 0.0
2015-Jan-27 12:33N 53°57' E 000°23'0 0.0
2015-Jan-27 11:33N 53°57' E 000°23'0 0.0
2015-Jan-27 10:33N 53°57' E 000°23'0 0.0
2015-Jan-27 09:33N 53°57' E 000°23'0 0.0
2015-Jan-27 08:33N 53°57' E 000°23'0 0.0
2015-Jan-27 07:33N 53°57' E 000°23'0 0.0
2015-Jan-27 06:33N 53°57' E 000°23'0 0.3
2015-Jan-27 05:33N 53°57' E 000°22'0 0.0
2015-Jan-27 04:18N 53°57' E 000°22'0 0.0
2015-Jan-27 03:24N 53°57' E 000°22'0 0.0
2015-Jan-27 02:24N 53°57' E 000°22'0 0.2
2015-Jan-27 01:33N 53°57' E 000°23'0 0.2
2015-Jan-27 00:33N 53°57' E 000°23'0 0.0
2015-Jan-26 23:33N 53°57' E 000°23'0 0.0
2015-Jan-26 22:33N 53°57' E 000°23'0 0.0
2015-Jan-26 21:30N 53°57' E 000°23'0 0.0
2015-Jan-26 20:33N 53°57' E 000°23'0 0.0
2015-Jan-26 19:30N 53°57' E 000°23'0 0.0
2015-Jan-26 18:33N 53°57' E 000°23'0 0.0
2015-Jan-26 17:31N 53°57' E 000°23'0 0.1
2015-Jan-26 16:31N 53°57' E 000°23'0 0.2
2015-Jan-26 15:31N 53°57' E 000°23'0 0.0
2015-Jan-26 14:31N 53°57' E 000°23'0 0.1
2015-Jan-26 13:31N 53°57' E 000°23'0 0.1
2015-Jan-26 12:31N 53°57' E 000°23'0 0.1
2015-Jan-26 11:31N 53°57' E 000°23'0 0.0
2015-Jan-26 10:31N 53°57' E 000°23'0 0.1
2015-Jan-26 09:31N 53°57' E 000°23'0 0.0
2015-Jan-26 08:31N 53°57' E 000°23'0 0.0
2015-Jan-26 07:31N 53°57' E 000°23'0 0.0
2015-Jan-26 06:31N 53°57' E 000°23'0 0.2
2015-Jan-26 05:31N 53°57' E 000°23'0 0.2
2015-Jan-26 04:31N 53°57' E 000°22'0 0.0
2015-Jan-26 03:28N 53°57' E 000°22'0 0.0
2015-Jan-26 02:31N 53°57' E 000°22'0 0.0
2015-Jan-26 01:25N 53°57' E 000°22'0 0.1
2015-Jan-26 00:25N 53°57' E 000°23'0 0.1
2015-Jan-25 23:31N 53°57' E 000°23'0 0.1
2015-Jan-25 22:31N 53°57' E 000°23'0 0.1
2015-Jan-25 21:31N 53°57' E 000°23'0 0.0
2015-Jan-25 20:31N 53°57' E 000°23'0 0.0
2015-Jan-25 19:31N 53°57' E 000°23'0 0.0
2015-Jan-25 18:31N 53°57' E 000°23'0 0.1
2015-Jan-25 17:28N 53°57' E 000°22'0 0.2
2015-Jan-25 16:31N 53°57' E 000°22'0 0.1
2015-Jan-25 15:31N 53°57' E 000°22'0 0.0
2015-Jan-25 14:31N 53°57' E 000°22'0 0.0
2015-Jan-25 13:31N 53°57' E 000°22'0 0.0
2015-Jan-25 12:25N 53°57' E 000°22'0 0.1
2015-Jan-25 11:28N 53°57' E 000°23'0 0.1
2015-Jan-25 10:31N 53°57' E 000°23'0 0.1
2015-Jan-25 09:28N 53°57' E 000°23'0 0.1
2015-Jan-25 08:31N 53°57' E 000°23'0 0.0
2015-Jan-25 07:31N 53°57' E 000°23'0 0.0
2015-Jan-25 06:31N 53°57' E 000°23'0 0.0
2015-Jan-25 05:31N 53°57' E 000°23'0 0.3
2015-Jan-25 04:31N 53°57' E 000°22'0 0.1
2015-Jan-25 03:31N 53°57' E 000°22'0 0.0
2015-Jan-25 02:31N 53°57' E 000°22'0 0.0
2015-Jan-25 01:31N 53°57' E 000°22'0 0.0
2015-Jan-25 00:19N 53°57' E 000°22'0 0.1
2015-Jan-24 23:31N 53°57' E 000°22'0 0.2
2015-Jan-24 22:31N 53°57' E 000°23'0 0.1
2015-Jan-24 21:31N 53°57' E 000°23'0 0.0
2015-Jan-24 20:31N 53°57' E 000°23'0 0.0
2015-Jan-24 19:31N 53°57' E 000°23'0 0.2
2015-Jan-24 18:34N 53°57' E 000°23'5 5.5
2015-Jan-24 17:33N 54°02' E 000°21'1616.0
2015-Jan-24 16:33N 54°18' E 000°20'1615.6
2015-Jan-24 15:33N 54°34' E 000°20'1515.1
2015-Jan-24 14:34N 54°49' E 000°19'  
Track history (hours):
 
Tides and Currents Weather Stations Pressure Air Temp Water Temp Dewpoint Dewpoint Depression Visibility Wind Speed Wind Dir Waves Ship Positions

Peary Spirit

Last reported at 2015-Jan-31 15:33 UTC. Time now 2015-Jan-31 16:13 UTC.
Position N 53°44' E 000°32'.

Length 249 m; draft 14.2 m.

Type: Ship (hazmat cat A). MMSI: 311027600.

Date/timePositionNaut miles runAvg speedWind from/ knotsBaromVisibWave heightAir tempDewpointWater temp
2015-Jan-31 15:33N 53°44' E 000°32'5 5.4
2015-Jan-31 14:33N 53°40' E 000°25'0 0.2
2015-Jan-31 13:33N 53°41' E 000°26'0 0.4
2015-Jan-31 12:33N 53°41' E 000°26'5 4.5
2015-Jan-31 11:33N 53°44' E 000°32'4 3.0
2015-Jan-31 10:21N 53°47' E 000°31'0 0.2
2015-Jan-31 09:21N 53°47' E 000°31'0 0.0
2015-Jan-31 08:27N 53°47' E 000°31'0 0.1
2015-Jan-31 07:27N 53°47' E 000°31'0 0.2
2015-Jan-31 06:30N 53°47' E 000°31'0 0.1
2015-Jan-31 05:30N 53°47' E 000°31'0 0.0
2015-Jan-31 04:30N 53°47' E 000°31'0 0.0
2015-Jan-31 03:33N 53°47' E 000°31'0 0.0
2015-Jan-31 02:33N 53°47' E 000°31'0 0.0
2015-Jan-31 01:33N 53°47' E 000°31'0 0.0
2015-Jan-31 00:30N 53°47' E 000°31'0 0.0
2015-Jan-30 23:18N 53°47' E 000°31'0 0.0
2015-Jan-30 22:33N 53°47' E 000°31'0 0.0
2015-Jan-30 21:24N 53°47' E 000°31'0 0.1
2015-Jan-30 20:33N 53°47' E 000°31'0 0.0
2015-Jan-30 19:33N 53°47' E 000°31'0 0.0
2015-Jan-30 18:24N 53°47' E 000°31'0 0.1
2015-Jan-30 17:33N 53°47' E 000°31'3 3.1
2015-Jan-30 16:33N 53°48' E 000°26'2 1.9
2015-Jan-30 15:33N 53°49' E 000°23'4 4.2
2015-Jan-30 14:33N 53°53' E 000°21'4 3.8
2015-Jan-30 13:31N 53°57' E 000°23'0 0.1
2015-Jan-30 12:31N 53°57' E 000°23'0 0.0
2015-Jan-30 11:31N 53°57' E 000°23'0 0.0
2015-Jan-30 10:28N 53°57' E 000°23'0 0.0
2015-Jan-30 09:31N 53°57' E 000°23'0 0.1
2015-Jan-30 08:31N 53°57' E 000°23'0 0.1
2015-Jan-30 07:31N 53°57' E 000°23'0 0.0
2015-Jan-30 06:31N 53°57' E 000°23'0 0.1
2015-Jan-30 05:28N 53°57' E 000°23'0 0.1
2015-Jan-30 04:25N 53°57' E 000°23'0 0.1
2015-Jan-30 03:25N 53°57' E 000°23'0 0.0
2015-Jan-30 02:33N 53°57' E 000°23'0 0.0
2015-Jan-30 01:31N 53°57' E 000°23'0 0.0
2015-Jan-30 00:31N 53°57' E 000°23'0 0.0
2015-Jan-29 23:31N 53°57' E 000°23'0 0.0
2015-Jan-29 22:34N 53°57' E 000°23'0 0.0
2015-Jan-29 21:34N 53°57' E 000°23'0 0.0
2015-Jan-29 20:30N 53°57' E 000°23'0 0.0
2015-Jan-29 19:31N 53°57' E 000°23'0 0.1
2015-Jan-29 18:34N 53°57' E 000°23'0 0.0
2015-Jan-29 17:30N 53°57' E 000°23'0 0.0
2015-Jan-29 16:18N 53°57' E 000°23'0 0.0
2015-Jan-29 15:28N 53°57' E 000°23'0 0.0
2015-Jan-29 14:31N 53°57' E 000°23'0 0.0
2015-Jan-29 13:24N 53°57' E 000°23'0 0.0
2015-Jan-29 12:33N 53°57' E 000°23'0 0.0
2015-Jan-29 11:34N 53°57' E 000°23'0 0.0
2015-Jan-29 10:28N 53°57' E 000°23'0 0.0
2015-Jan-29 09:33N 53°57' E 000°23'0 0.0
2015-Jan-29 08:33N 53°57' E 000°23'0 0.0
2015-Jan-29 07:28N 53°57' E 000°23'0 0.0
2015-Jan-29 06:30N 53°57' E 000°23'0 0.0
2015-Jan-29 05:33N 53°57' E 000°23'0 0.0
2015-Jan-29 04:33N 53°57' E 000°23'0 0.0
2015-Jan-29 03:33N 53°57' E 000°23'0 0.0
2015-Jan-29 02:34N 53°57' E 000°23'0 0.0
2015-Jan-29 01:34N 53°57' E 000°23'0 0.1
2015-Jan-29 00:33N 53°57' E 000°23'0 0.0
2015-Jan-28 23:34N 53°57' E 000°23'0 0.0
2015-Jan-28 22:34N 53°57' E 000°23'0 0.0
2015-Jan-28 21:33N 53°57' E 000°23'0 0.0
2015-Jan-28 20:33N 53°57' E 000°23'0 0.0
2015-Jan-28 19:33N 53°57' E 000°23'0 0.0
2015-Jan-28 18:33N 53°57' E 000°23'0 0.0
2015-Jan-28 17:24N 53°57' E 000°23'0 0.0
2015-Jan-28 16:27N 53°57' E 000°23'0 0.0
2015-Jan-28 15:33N 53°57' E 000°23'0 0.0
2015-Jan-28 14:33N 53°57' E 000°23'0 0.0
2015-Jan-28 13:30N 53°57' E 000°23'0 0.0
2015-Jan-28 12:33N 53°57' E 000°23'0 0.0
2015-Jan-28 11:33N 53°57' E 000°23'0 0.0
2015-Jan-28 10:33N 53°57' E 000°23'0 0.2
2015-Jan-28 09:33N 53°57' E 000°23'0 0.1
2015-Jan-28 08:33N 53°57' E 000°23'0 0.1
2015-Jan-28 07:24N 53°57' E 000°23'0 0.1
2015-Jan-28 06:24N 53°57' E 000°22'0 0.0
2015-Jan-28 05:33N 53°57' E 000°22'0 0.0
2015-Jan-28 04:24N 53°57' E 000°22'0 0.0
2015-Jan-28 03:27N 53°57' E 000°22'0 0.0
2015-Jan-28 02:30N 53°57' E 000°23'0 0.0
2015-Jan-28 01:24N 53°57' E 000°23'0 0.1
2015-Jan-28 00:33N 53°57' E 000°23'0 0.1
2015-Jan-27 23:33N 53°57' E 000°23'0 0.1
2015-Jan-27 22:33N 53°57' E 000°23'0 0.0
2015-Jan-27 21:33N 53°57' E 000°23'0 0.0
2015-Jan-27 20:33N 53°57' E 000°23'0 0.0
2015-Jan-27 19:33N 53°57' E 000°23'0 0.0
2015-Jan-27 18:33N 53°57' E 000°23'0 0.2
2015-Jan-27 17:24N 53°57' E 000°22'0 0.0
2015-Jan-27 16:24N 53°57' E 000°22'0 0.0
2015-Jan-27 15:24N 53°57' E 000°22'0 0.1
2015-Jan-27 14:33N 53°57' E 000°23'0 0.2
2015-Jan-27 13:27N 53°57' E 000°23'0 0.0
2015-Jan-27 12:33N 53°57' E 000°23'0 0.0
2015-Jan-27 11:33N 53°57' E 000°23'0 0.0
2015-Jan-27 10:33N 53°57' E 000°23'0 0.0
2015-Jan-27 09:33N 53°57' E 000°23'0 0.0
2015-Jan-27 08:33N 53°57' E 000°23'0 0.0
2015-Jan-27 07:33N 53°57' E 000°23'0 0.0
2015-Jan-27 06:33N 53°57' E 000°23'0 0.3
2015-Jan-27 05:33N 53°57' E 000°22'0 0.0
2015-Jan-27 04:18N 53°57' E 000°22'0 0.0
2015-Jan-27 03:24N 53°57' E 000°22'0 0.0
2015-Jan-27 02:24N 53°57' E 000°22'0 0.2
2015-Jan-27 01:33N 53°57' E 000°23'0 0.2
2015-Jan-27 00:33N 53°57' E 000°23'0 0.0
2015-Jan-26 23:33N 53°57' E 000°23'0 0.0
2015-Jan-26 22:33N 53°57' E 000°23'0 0.0
2015-Jan-26 21:30N 53°57' E 000°23'0 0.0
2015-Jan-26 20:33N 53°57' E 000°23'0 0.0
2015-Jan-26 19:30N 53°57' E 000°23'0 0.0
2015-Jan-26 18:33N 53°57' E 000°23'0 0.0
2015-Jan-26 17:31N 53°57' E 000°23'0 0.1
2015-Jan-26 16:31N 53°57' E 000°23'0 0.2
2015-Jan-26 15:31N 53°57' E 000°23'0 0.0
2015-Jan-26 14:31N 53°57' E 000°23'0 0.1
2015-Jan-26 13:31N 53°57' E 000°23'0 0.1
2015-Jan-26 12:31N 53°57' E 000°23'0 0.1
2015-Jan-26 11:31N 53°57' E 000°23'0 0.0
2015-Jan-26 10:31N 53°57' E 000°23'0 0.1
2015-Jan-26 09:31N 53°57' E 000°23'0 0.0
2015-Jan-26 08:31N 53°57' E 000°23'0 0.0
2015-Jan-26 07:31N 53°57' E 000°23'0 0.0
2015-Jan-26 06:31N 53°57' E 000°23'0 0.2
2015-Jan-26 05:31N 53°57' E 000°23'0 0.2
2015-Jan-26 04:31N 53°57' E 000°22'0 0.0
2015-Jan-26 03:28N 53°57' E 000°22'0 0.0
2015-Jan-26 02:31N 53°57' E 000°22'0 0.0
2015-Jan-26 01:25N 53°57' E 000°22'0 0.1
2015-Jan-26 00:25N 53°57' E 000°23'0 0.1
2015-Jan-25 23:31N 53°57' E 000°23'0 0.1
2015-Jan-25 22:31N 53°57' E 000°23'0 0.1
2015-Jan-25 21:31N 53°57' E 000°23'0 0.0
2015-Jan-25 20:31N 53°57' E 000°23'0 0.0
2015-Jan-25 19:31N 53°57' E 000°23'0 0.0
2015-Jan-25 18:31N 53°57' E 000°23'0 0.1
2015-Jan-25 17:28N 53°57' E 000°22'0 0.2
2015-Jan-25 16:31N 53°57' E 000°22'0 0.1
2015-Jan-25 15:31N 53°57' E 000°22'0 0.0
2015-Jan-25 14:31N 53°57' E 000°22'0 0.0
2015-Jan-25 13:31N 53°57' E 000°22'0 0.0
2015-Jan-25 12:25N 53°57' E 000°22'0 0.1
2015-Jan-25 11:28N 53°57' E 000°23'0 0.1
2015-Jan-25 10:31N 53°57' E 000°23'0 0.1
2015-Jan-25 09:28N 53°57' E 000°23'0 0.1
2015-Jan-25 08:31N 53°57' E 000°23'0 0.0
2015-Jan-25 07:31N 53°57' E 000°23'0 0.0
2015-Jan-25 06:31N 53°57' E 000°23'0 0.0
2015-Jan-25 05:31N 53°57' E 000°23'0 0.3
2015-Jan-25 04:31N 53°57' E 000°22'0 0.1
2015-Jan-25 03:31N 53°57' E 000°22'0 0.0
2015-Jan-25 02:31N 53°57' E 000°22'0 0.0
2015-Jan-25 01:31N 53°57' E 000°22'0 0.0
2015-Jan-25 00:19N 53°57' E 000°22'0 0.1
2015-Jan-24 23:31N 53°57' E 000°22'0 0.2
2015-Jan-24 22:31N 53°57' E 000°23'0 0.1
2015-Jan-24 21:31N 53°57' E 000°23'0 0.0
2015-Jan-24 20:31N 53°57' E 000°23'0 0.0
2015-Jan-24 19:31N 53°57' E 000°23'0 0.2
2015-Jan-24 18:34N 53°57' E 000°23'5 5.5
2015-Jan-24 17:33N 54°02' E 000°21'1616.0
2015-Jan-24 16:33N 54°18' E 000°20'1615.6
2015-Jan-24 15:33N 54°34' E 000°20'1515.1
2015-Jan-24 14:34N 54°49' E 000°19'  

Dump ship's entire track history